sensor_id;sensor_type;location;lat;lon;timestamp;pressure;altitude;pressure_sealevel;temperature
41940;BMP180;23057;48.554;14.454;2023-12-22T00:00:25;91639.00;;;9.60
41940;BMP180;23057;48.554;14.454;2023-12-22T00:02:56;91640.00;;;9.60
41940;BMP180;23057;48.554;14.454;2023-12-22T00:05:27;91619.00;;;9.60
41940;BMP180;23057;48.554;14.454;2023-12-22T00:07:58;91616.00;;;9.60
41940;BMP180;23057;48.554;14.454;2023-12-22T00:10:28;91628.00;;;9.60
41940;BMP180;23057;48.554;14.454;2023-12-22T00:12:59;91645.00;;;9.60
41940;BMP180;23057;48.554;14.454;2023-12-22T00:15:30;91645.00;;;9.60
41940;BMP180;23057;48.554;14.454;2023-12-22T00:18:01;91657.00;;;9.60
41940;BMP180;23057;48.554;14.454;2023-12-22T00:20:32;91669.00;;;9.60
41940;BMP180;23057;48.554;14.454;2023-12-22T00:23:03;91643.00;;;9.60
41940;BMP180;23057;48.554;14.454;2023-12-22T00:25:33;91637.00;;;9.60
41940;BMP180;23057;48.554;14.454;2023-12-22T00:28:04;91651.00;;;9.60
41940;BMP180;23057;48.554;14.454;2023-12-22T00:30:35;91669.00;;;9.60
41940;BMP180;23057;48.554;14.454;2023-12-22T00:33:06;91652.00;;;9.60
41940;BMP180;23057;48.554;14.454;2023-12-22T00:35:37;91672.00;;;9.50
41940;BMP180;23057;48.554;14.454;2023-12-22T00:38:08;91697.00;;;9.40
41940;BMP180;23057;48.554;14.454;2023-12-22T00:40:39;91706.00;;;9.40
41940;BMP180;23057;48.554;14.454;2023-12-22T00:43:09;91683.00;;;9.30
41940;BMP180;23057;48.554;14.454;2023-12-22T00:45:40;91686.00;;;9.30
41940;BMP180;23057;48.554;14.454;2023-12-22T00:48:11;91674.00;;;9.20
41940;BMP180;23057;48.554;14.454;2023-12-22T00:50:42;91665.00;;;9.20
41940;BMP180;23057;48.554;14.454;2023-12-22T00:53:13;91688.00;;;9.10
41940;BMP180;23057;48.554;14.454;2023-12-22T00:55:43;91702.00;;;9.10
41940;BMP180;23057;48.554;14.454;2023-12-22T00:58:14;91685.00;;;9.10
41940;BMP180;23057;48.554;14.454;2023-12-22T01:00:45;91685.00;;;9.10
41940;BMP180;23057;48.554;14.454;2023-12-22T01:03:16;91716.00;;;9.10
41940;BMP180;23057;48.554;14.454;2023-12-22T01:05:47;91743.00;;;9.00
41940;BMP180;23057;48.554;14.454;2023-12-22T01:08:17;91742.00;;;9.00
41940;BMP180;23057;48.554;14.454;2023-12-22T01:10:48;91754.00;;;9.00
41940;BMP180;23057;48.554;14.454;2023-12-22T01:13:19;91726.00;;;9.00
41940;BMP180;23057;48.554;14.454;2023-12-22T01:15:50;91757.00;;;9.00
41940;BMP180;23057;48.554;14.454;2023-12-22T01:18:21;91747.00;;;8.90
41940;BMP180;23057;48.554;14.454;2023-12-22T01:20:51;91738.00;;;8.90
41940;BMP180;23057;48.554;14.454;2023-12-22T01:23:22;91735.00;;;8.90
41940;BMP180;23057;48.554;14.454;2023-12-22T01:25:53;91732.00;;;8.90
41940;BMP180;23057;48.554;14.454;2023-12-22T01:28:24;91689.00;;;8.90
41940;BMP180;23057;48.554;14.454;2023-12-22T01:30:54;91705.00;;;8.90
41940;BMP180;23057;48.554;14.454;2023-12-22T01:33:25;91715.00;;;8.90
41940;BMP180;23057;48.554;14.454;2023-12-22T01:35:56;91776.00;;;8.90
41940;BMP180;23057;48.554;14.454;2023-12-22T01:38:27;91764.00;;;8.80
41940;BMP180;23057;48.554;14.454;2023-12-22T01:40:58;91701.00;;;8.80
41940;BMP180;23057;48.554;14.454;2023-12-22T01:43:28;91702.00;;;8.80
41940;BMP180;23057;48.554;14.454;2023-12-22T01:46:01;91738.00;;;8.80
41940;BMP180;23057;48.554;14.454;2023-12-22T01:48:33;91714.00;;;8.80
41940;BMP180;23057;48.554;14.454;2023-12-22T01:51:06;91725.00;;;8.70
41940;BMP180;23057;48.554;14.454;2023-12-22T01:53:37;91729.00;;;8.70
41940;BMP180;23057;48.554;14.454;2023-12-22T01:56:09;91727.00;;;8.70
41940;BMP180;23057;48.554;14.454;2023-12-22T01:58:40;91749.00;;;8.70
41940;BMP180;23057;48.554;14.454;2023-12-22T02:01:11;91788.00;;;8.70
41940;BMP180;23057;48.554;14.454;2023-12-22T02:03:42;91781.00;;;8.70
41940;BMP180;23057;48.554;14.454;2023-12-22T02:06:13;91730.00;;;8.70
41940;BMP180;23057;48.554;14.454;2023-12-22T02:08:47;91710.00;;;8.70
41940;BMP180;23057;48.554;14.454;2023-12-22T02:11:19;91703.00;;;8.70
41940;BMP180;23057;48.554;14.454;2023-12-22T02:13:50;91710.00;;;8.70
41940;BMP180;23057;48.554;14.454;2023-12-22T02:19:53;91711.00;;;8.70
41940;BMP180;23057;48.554;14.454;2023-12-22T02:22:29;91712.00;;;8.70
41940;BMP180;23057;48.554;14.454;2023-12-22T02:25:00;91725.00;;;8.70
41940;BMP180;23057;48.554;14.454;2023-12-22T02:27:48;91736.00;;;8.70
41940;BMP180;23057;48.554;14.454;2023-12-22T02:31:03;91739.00;;;8.70
41940;BMP180;23057;48.554;14.454;2023-12-22T02:33:42;91738.00;;;8.60
41940;BMP180;23057;48.554;14.454;2023-12-22T02:36:16;91730.00;;;8.60
41940;BMP180;23057;48.554;14.454;2023-12-22T02:38:49;91738.00;;;8.60
41940;BMP180;23057;48.554;14.454;2023-12-22T02:41:24;91737.00;;;8.60
41940;BMP180;23057;48.554;14.454;2023-12-22T02:43:55;91703.00;;;8.50
41940;BMP180;23057;48.554;14.454;2023-12-22T02:46:26;91707.00;;;8.50
41940;BMP180;23057;48.554;14.454;2023-12-22T02:48:57;91743.00;;;8.50
41940;BMP180;23057;48.554;14.454;2023-12-22T02:51:28;91760.00;;;8.50
41940;BMP180;23057;48.554;14.454;2023-12-22T02:53:59;91765.00;;;8.40
41940;BMP180;23057;48.554;14.454;2023-12-22T02:56:30;91753.00;;;8.50
41940;BMP180;23057;48.554;14.454;2023-12-22T02:59:01;91757.00;;;8.50
41940;BMP180;23057;48.554;14.454;2023-12-22T03:01:31;91764.00;;;8.50
41940;BMP180;23057;48.554;14.454;2023-12-22T03:04:02;91751.00;;;8.40
41940;BMP180;23057;48.554;14.454;2023-12-22T03:06:33;91745.00;;;8.40
41940;BMP180;23057;48.554;14.454;2023-12-22T03:09:04;91737.00;;;8.40
41940;BMP180;23057;48.554;14.454;2023-12-22T03:11:34;91743.00;;;8.40
41940;BMP180;23057;48.554;14.454;2023-12-22T03:14:05;91748.00;;;8.40
41940;BMP180;23057;48.554;14.454;2023-12-22T03:16:36;91716.00;;;8.40
41940;BMP180;23057;48.554;14.454;2023-12-22T03:19:07;91722.00;;;8.50
41940;BMP180;23057;48.554;14.454;2023-12-22T03:21:38;91716.00;;;8.50
41940;BMP180;23057;48.554;14.454;2023-12-22T03:24:09;91706.00;;;8.50
41940;BMP180;23057;48.554;14.454;2023-12-22T03:26:40;91720.00;;;8.40
41940;BMP180;23057;48.554;14.454;2023-12-22T03:29:11;91725.00;;;8.40
41940;BMP180;23057;48.554;14.454;2023-12-22T03:31:41;91749.00;;;8.40
41940;BMP180;23057;48.554;14.454;2023-12-22T03:34:13;91736.00;;;8.30
41940;BMP180;23057;48.554;14.454;2023-12-22T03:36:44;91762.00;;;8.30
41940;BMP180;23057;48.554;14.454;2023-12-22T03:39:19;91761.00;;;8.20
41940;BMP180;23057;48.554;14.454;2023-12-22T03:41:49;91771.00;;;8.20
41940;BMP180;23057;48.554;14.454;2023-12-22T03:44:20;91768.00;;;8.20
41940;BMP180;23057;48.554;14.454;2023-12-22T03:46:51;91765.00;;;8.20
41940;BMP180;23057;48.554;14.454;2023-12-22T03:49:22;91773.00;;;8.20
41940;BMP180;23057;48.554;14.454;2023-12-22T03:51:53;91781.00;;;8.20
41940;BMP180;23057;48.554;14.454;2023-12-22T03:54:25;91795.00;;;8.20
41940;BMP180;23057;48.554;14.454;2023-12-22T03:56:56;91806.00;;;8.20
41940;BMP180;23057;48.554;14.454;2023-12-22T03:59:27;91798.00;;;8.20
41940;BMP180;23057;48.554;14.454;2023-12-22T04:01:58;91787.00;;;8.20
41940;BMP180;23057;48.554;14.454;2023-12-22T04:04:31;91780.00;;;8.20
41940;BMP180;23057;48.554;14.454;2023-12-22T04:07:02;91781.00;;;8.20
41940;BMP180;23057;48.554;14.454;2023-12-22T04:09:33;91774.00;;;8.20
41940;BMP180;23057;48.554;14.454;2023-12-22T04:12:04;91778.00;;;8.20
41940;BMP180;23057;48.554;14.454;2023-12-22T04:14:35;91770.00;;;8.20
41940;BMP180;23057;48.554;14.454;2023-12-22T04:17:06;91770.00;;;8.20
41940;BMP180;23057;48.554;14.454;2023-12-22T04:19:37;91772.00;;;8.20
41940;BMP180;23057;48.554;14.454;2023-12-22T04:22:08;91775.00;;;8.30
41940;BMP180;23057;48.554;14.454;2023-12-22T04:24:39;91770.00;;;8.30
41940;BMP180;23057;48.554;14.454;2023-12-22T04:27:09;91766.00;;;8.20
41940;BMP180;23057;48.554;14.454;2023-12-22T04:29:40;91791.00;;;8.20
41940;BMP180;23057;48.554;14.454;2023-12-22T04:32:11;91767.00;;;8.20
41940;BMP180;23057;48.554;14.454;2023-12-22T04:34:42;91766.00;;;8.30
41940;BMP180;23057;48.554;14.454;2023-12-22T04:37:12;91765.00;;;8.30
41940;BMP180;23057;48.554;14.454;2023-12-22T04:39:43;91760.00;;;8.30
41940;BMP180;23057;48.554;14.454;2023-12-22T04:42:14;91762.00;;;8.30
41940;BMP180;23057;48.554;14.454;2023-12-22T04:44:45;91735.00;;;8.30
41940;BMP180;23057;48.554;14.454;2023-12-22T04:47:16;91735.00;;;8.30
41940;BMP180;23057;48.554;14.454;2023-12-22T04:49:47;91757.00;;;8.30
41940;BMP180;23057;48.554;14.454;2023-12-22T04:52:17;91746.00;;;8.30
41940;BMP180;23057;48.554;14.454;2023-12-22T04:54:48;91726.00;;;8.30
41940;BMP180;23057;48.554;14.454;2023-12-22T04:57:19;91736.00;;;8.20
41940;BMP180;23057;48.554;14.454;2023-12-22T04:59:50;91757.00;;;8.20
41940;BMP180;23057;48.554;14.454;2023-12-22T05:02:20;91744.00;;;8.20
41940;BMP180;23057;48.554;14.454;2023-12-22T05:04:51;91764.00;;;8.20
41940;BMP180;23057;48.554;14.454;2023-12-22T05:07:22;91771.00;;;8.20
41940;BMP180;23057;48.554;14.454;2023-12-22T05:09:53;91787.00;;;8.20
41940;BMP180;23057;48.554;14.454;2023-12-22T05:12:25;91778.00;;;8.20
41940;BMP180;23057;48.554;14.454;2023-12-22T05:14:55;91772.00;;;8.20
41940;BMP180;23057;48.554;14.454;2023-12-22T05:17:26;91767.00;;;8.20
41940;BMP180;23057;48.554;14.454;2023-12-22T05:19:57;91775.00;;;8.20
41940;BMP180;23057;48.554;14.454;2023-12-22T05:22:28;91769.00;;;8.20
41940;BMP180;23057;48.554;14.454;2023-12-22T05:25:01;91739.00;;;8.20
41940;BMP180;23057;48.554;14.454;2023-12-22T05:27:31;91750.00;;;8.20
41940;BMP180;23057;48.554;14.454;2023-12-22T05:30:02;91739.00;;;8.20
41940;BMP180;23057;48.554;14.454;2023-12-22T05:32:34;91765.00;;;8.20
41940;BMP180;23057;48.554;14.454;2023-12-22T05:35:05;91760.00;;;8.20
41940;BMP180;23057;48.554;14.454;2023-12-22T05:37:36;91779.00;;;8.20
41940;BMP180;23057;48.554;14.454;2023-12-22T05:40:08;91754.00;;;8.20
41940;BMP180;23057;48.554;14.454;2023-12-22T05:42:40;91775.00;;;8.20
41940;BMP180;23057;48.554;14.454;2023-12-22T05:45:11;91747.00;;;8.10
41940;BMP180;23057;48.554;14.454;2023-12-22T05:47:42;91768.00;;;8.10
41940;BMP180;23057;48.554;14.454;2023-12-22T05:50:13;91770.00;;;8.10
41940;BMP180;23057;48.554;14.454;2023-12-22T05:52:44;91777.00;;;8.10
41940;BMP180;23057;48.554;14.454;2023-12-22T05:55:15;91754.00;;;8.10
41940;BMP180;23057;48.554;14.454;2023-12-22T05:57:46;91755.00;;;8.10
41940;BMP180;23057;48.554;14.454;2023-12-22T06:00:17;91773.00;;;8.10
41940;BMP180;23057;48.554;14.454;2023-12-22T06:02:48;91786.00;;;8.00
41940;BMP180;23057;48.554;14.454;2023-12-22T06:05:19;91783.00;;;8.00
41940;BMP180;23057;48.554;14.454;2023-12-22T06:07:49;91797.00;;;8.00
41940;BMP180;23057;48.554;14.454;2023-12-22T06:10:20;91787.00;;;8.00
41940;BMP180;23057;48.554;14.454;2023-12-22T06:12:51;91786.00;;;7.90
41940;BMP180;23057;48.554;14.454;2023-12-22T06:15:22;91771.00;;;7.90
41940;BMP180;23057;48.554;14.454;2023-12-22T06:17:53;91775.00;;;7.90
41940;BMP180;23057;48.554;14.454;2023-12-22T06:20:24;91780.00;;;7.90
41940;BMP180;23057;48.554;14.454;2023-12-22T06:22:55;91782.00;;;7.90
41940;BMP180;23057;48.554;14.454;2023-12-22T06:25:25;91789.00;;;7.90
41940;BMP180;23057;48.554;14.454;2023-12-22T06:27:56;91794.00;;;7.90
41940;BMP180;23057;48.554;14.454;2023-12-22T06:30:27;91814.00;;;7.90
41940;BMP180;23057;48.554;14.454;2023-12-22T06:32:58;91811.00;;;7.90
41940;BMP180;23057;48.554;14.454;2023-12-22T06:35:28;91798.00;;;7.90
41940;BMP180;23057;48.554;14.454;2023-12-22T06:37:59;91808.00;;;7.90
41940;BMP180;23057;48.554;14.454;2023-12-22T06:40:37;91819.00;;;7.80
41940;BMP180;23057;48.554;14.454;2023-12-22T06:43:08;91821.00;;;7.80
41940;BMP180;23057;48.554;14.454;2023-12-22T06:45:39;91802.00;;;7.80
41940;BMP180;23057;48.554;14.454;2023-12-22T06:48:10;91796.00;;;7.80
41940;BMP180;23057;48.554;14.454;2023-12-22T06:50:41;91782.00;;;7.80
41940;BMP180;23057;48.554;14.454;2023-12-22T06:53:15;91794.00;;;7.90
41940;BMP180;23057;48.554;14.454;2023-12-22T06:55:45;91810.00;;;7.90
41940;BMP180;23057;48.554;14.454;2023-12-22T06:58:16;91817.00;;;7.90
41940;BMP180;23057;48.554;14.454;2023-12-22T07:00:47;91818.00;;;7.90
41940;BMP180;23057;48.554;14.454;2023-12-22T07:03:18;91815.00;;;7.90
41940;BMP180;23057;48.554;14.454;2023-12-22T07:05:49;91816.00;;;7.90
41940;BMP180;23057;48.554;14.454;2023-12-22T07:08:21;91827.00;;;7.90
41940;BMP180;23057;48.554;14.454;2023-12-22T07:10:52;91827.00;;;7.90
41940;BMP180;23057;48.554;14.454;2023-12-22T07:13:23;91835.00;;;7.90
41940;BMP180;23057;48.554;14.454;2023-12-22T07:15:53;91825.00;;;7.90
41940;BMP180;23057;48.554;14.454;2023-12-22T07:18:24;91831.00;;;7.90
41940;BMP180;23057;48.554;14.454;2023-12-22T07:20:59;91843.00;;;7.90
41940;BMP180;23057;48.554;14.454;2023-12-22T07:23:30;91844.00;;;7.90
41940;BMP180;23057;48.554;14.454;2023-12-22T07:26:01;91860.00;;;7.90
41940;BMP180;23057;48.554;14.454;2023-12-22T07:28:32;91848.00;;;7.90
41940;BMP180;23057;48.554;14.454;2023-12-22T07:31:03;91857.00;;;7.90
41940;BMP180;23057;48.554;14.454;2023-12-22T07:33:35;91858.00;;;7.90
41940;BMP180;23057;48.554;14.454;2023-12-22T07:36:07;91840.00;;;7.90
41940;BMP180;23057;48.554;14.454;2023-12-22T07:38:38;91834.00;;;7.90
41940;BMP180;23057;48.554;14.454;2023-12-22T07:41:12;91844.00;;;8.00
41940;BMP180;23057;48.554;14.454;2023-12-22T07:43:43;91854.00;;;8.00
41940;BMP180;23057;48.554;14.454;2023-12-22T07:46:19;91838.00;;;8.00
41940;BMP180;23057;48.554;14.454;2023-12-22T07:48:50;91846.00;;;8.00
41940;BMP180;23057;48.554;14.454;2023-12-22T07:51:21;91856.00;;;8.00
41940;BMP180;23057;48.554;14.454;2023-12-22T07:53:52;91872.00;;;8.10
41940;BMP180;23057;48.554;14.454;2023-12-22T07:56:23;91877.00;;;8.10
41940;BMP180;23057;48.554;14.454;2023-12-22T07:58:53;91873.00;;;8.10
41940;BMP180;23057;48.554;14.454;2023-12-22T08:01:25;91862.00;;;8.10
41940;BMP180;23057;48.554;14.454;2023-12-22T08:03:55;91873.00;;;8.10
41940;BMP180;23057;48.554;14.454;2023-12-22T08:06:26;91865.00;;;8.10
41940;BMP180;23057;48.554;14.454;2023-12-22T08:08:57;91864.00;;;8.20
41940;BMP180;23057;48.554;14.454;2023-12-22T08:11:28;91893.00;;;8.20
41940;BMP180;23057;48.554;14.454;2023-12-22T08:13:59;91899.00;;;8.20
41940;BMP180;23057;48.554;14.454;2023-12-22T08:16:29;91907.00;;;8.30
41940;BMP180;23057;48.554;14.454;2023-12-22T08:19:00;91908.00;;;8.40
41940;BMP180;23057;48.554;14.454;2023-12-22T08:21:31;91895.00;;;8.40
41940;BMP180;23057;48.554;14.454;2023-12-22T08:24:02;91888.00;;;8.40
41940;BMP180;23057;48.554;14.454;2023-12-22T08:26:33;91884.00;;;8.40
41940;BMP180;23057;48.554;14.454;2023-12-22T08:29:03;91884.00;;;8.40
41940;BMP180;23057;48.554;14.454;2023-12-22T08:31:34;91906.00;;;8.40
41940;BMP180;23057;48.554;14.454;2023-12-22T08:34:05;91918.00;;;8.50
41940;BMP180;23057;48.554;14.454;2023-12-22T08:36:36;91894.00;;;8.50
41940;BMP180;23057;48.554;14.454;2023-12-22T08:39:07;91907.00;;;8.50
41940;BMP180;23057;48.554;14.454;2023-12-22T08:41:38;91897.00;;;8.60
41940;BMP180;23057;48.554;14.454;2023-12-22T08:44:09;91916.00;;;8.60
41940;BMP180;23057;48.554;14.454;2023-12-22T08:46:40;91914.00;;;8.60
41940;BMP180;23057;48.554;14.454;2023-12-22T08:49:11;91914.00;;;8.60
41940;BMP180;23057;48.554;14.454;2023-12-22T08:51:42;91924.00;;;8.70
41940;BMP180;23057;48.554;14.454;2023-12-22T08:54:13;91931.00;;;8.70
41940;BMP180;23057;48.554;14.454;2023-12-22T08:56:45;91943.00;;;8.70
41940;BMP180;23057;48.554;14.454;2023-12-22T08:59:16;91939.00;;;8.70
41940;BMP180;23057;48.554;14.454;2023-12-22T09:01:47;91951.00;;;8.70
41940;BMP180;23057;48.554;14.454;2023-12-22T09:04:18;91952.00;;;8.70
41940;BMP180;23057;48.554;14.454;2023-12-22T09:06:51;91961.00;;;8.70
41940;BMP180;23057;48.554;14.454;2023-12-22T09:09:22;91959.00;;;8.70
41940;BMP180;23057;48.554;14.454;2023-12-22T09:11:54;91970.00;;;8.60
41940;BMP180;23057;48.554;14.454;2023-12-22T09:14:25;91964.00;;;8.60
41940;BMP180;23057;48.554;14.454;2023-12-22T09:16:56;91971.00;;;8.60
41940;BMP180;23057;48.554;14.454;2023-12-22T09:19:27;91975.00;;;8.60
41940;BMP180;23057;48.554;14.454;2023-12-22T09:21:58;91977.00;;;8.50
41940;BMP180;23057;48.554;14.454;2023-12-22T09:24:28;91985.00;;;8.50
41940;BMP180;23057;48.554;14.454;2023-12-22T09:26:59;91979.00;;;8.50
41940;BMP180;23057;48.554;14.454;2023-12-22T09:29:33;91980.00;;;8.50
41940;BMP180;23057;48.554;14.454;2023-12-22T09:32:06;91992.00;;;8.40
41940;BMP180;23057;48.554;14.454;2023-12-22T09:34:37;91983.00;;;8.40
41940;BMP180;23057;48.554;14.454;2023-12-22T09:37:09;91975.00;;;8.40
41940;BMP180;23057;48.554;14.454;2023-12-22T09:39:40;91971.00;;;8.40
41940;BMP180;23057;48.554;14.454;2023-12-22T09:42:11;91974.00;;;8.40
41940;BMP180;23057;48.554;14.454;2023-12-22T09:44:42;91977.00;;;8.40
41940;BMP180;23057;48.554;14.454;2023-12-22T09:47:15;91977.00;;;8.40
41940;BMP180;23057;48.554;14.454;2023-12-22T09:49:48;91967.00;;;8.50
41940;BMP180;23057;48.554;14.454;2023-12-22T09:52:22;91973.00;;;8.50
41940;BMP180;23057;48.554;14.454;2023-12-22T09:54:55;91967.00;;;8.60
41940;BMP180;23057;48.554;14.454;2023-12-22T09:57:28;91969.00;;;8.60
41940;BMP180;23057;48.554;14.454;2023-12-22T10:00:03;91960.00;;;8.70
41940;BMP180;23057;48.554;14.454;2023-12-22T10:02:37;91965.00;;;8.70
41940;BMP180;23057;48.554;14.454;2023-12-22T10:05:08;91951.00;;;8.70
41940;BMP180;23057;48.554;14.454;2023-12-22T10:07:46;91967.00;;;8.70
41940;BMP180;23057;48.554;14.454;2023-12-22T10:10:18;91964.00;;;8.70
41940;BMP180;23057;48.554;14.454;2023-12-22T10:12:52;91967.00;;;8.70
41940;BMP180;23057;48.554;14.454;2023-12-22T10:15:23;91955.00;;;8.80
41940;BMP180;23057;48.554;14.454;2023-12-22T10:17:55;91972.00;;;8.80
41940;BMP180;23057;48.554;14.454;2023-12-22T10:20:26;91959.00;;;8.80
41940;BMP180;23057;48.554;14.454;2023-12-22T10:22:57;91968.00;;;8.70
41940;BMP180;23057;48.554;14.454;2023-12-22T10:25:29;91959.00;;;8.80
41940;BMP180;23057;48.554;14.454;2023-12-22T10:28:01;91965.00;;;8.70
41940;BMP180;23057;48.554;14.454;2023-12-22T10:30:33;91967.00;;;8.80
41940;BMP180;23057;48.554;14.454;2023-12-22T10:33:05;91949.00;;;8.90
41940;BMP180;23057;48.554;14.454;2023-12-22T10:35:37;91968.00;;;8.90
41940;BMP180;23057;48.554;14.454;2023-12-22T10:38:08;91929.00;;;8.80
41940;BMP180;23057;48.554;14.454;2023-12-22T10:40:39;91957.00;;;8.80
41940;BMP180;23057;48.554;14.454;2023-12-22T10:43:10;91927.00;;;8.80
41940;BMP180;23057;48.554;14.454;2023-12-22T10:45:41;91951.00;;;8.80
41940;BMP180;23057;48.554;14.454;2023-12-22T10:48:11;91950.00;;;8.80
41940;BMP180;23057;48.554;14.454;2023-12-22T10:50:43;91939.00;;;8.80
41940;BMP180;23057;48.554;14.454;2023-12-22T10:53:15;91924.00;;;8.80
41940;BMP180;23057;48.554;14.454;2023-12-22T10:55:47;91953.00;;;8.80
41940;BMP180;23057;48.554;14.454;2023-12-22T10:58:21;91930.00;;;8.80
41940;BMP180;23057;48.554;14.454;2023-12-22T11:00:53;91939.00;;;8.80
41940;BMP180;23057;48.554;14.454;2023-12-22T11:03:25;91927.00;;;8.90
41940;BMP180;23057;48.554;14.454;2023-12-22T11:06:04;91933.00;;;8.90
41940;BMP180;23057;48.554;14.454;2023-12-22T11:08:40;91927.00;;;9.00
41940;BMP180;23057;48.554;14.454;2023-12-22T11:11:30;91935.00;;;9.00
41940;BMP180;23057;48.554;14.454;2023-12-22T11:14:06;91922.00;;;9.00
41940;BMP180;23057;48.554;14.454;2023-12-22T11:16:39;91938.00;;;9.10
41940;BMP180;23057;48.554;14.454;2023-12-22T11:19:12;91920.00;;;9.10
41940;BMP180;23057;48.554;14.454;2023-12-22T11:21:47;91927.00;;;9.10
41940;BMP180;23057;48.554;14.454;2023-12-22T11:24:21;91939.00;;;9.10
41940;BMP180;23057;48.554;14.454;2023-12-22T11:26:57;91920.00;;;9.10
41940;BMP180;23057;48.554;14.454;2023-12-22T11:29:31;91941.00;;;9.10
41940;BMP180;23057;48.554;14.454;2023-12-22T11:32:06;91941.00;;;9.10
41940;BMP180;23057;48.554;14.454;2023-12-22T11:34:42;91924.00;;;9.10
41940;BMP180;23057;48.554;14.454;2023-12-22T11:37:16;91923.00;;;9.20
41940;BMP180;23057;48.554;14.454;2023-12-22T11:39:47;91920.00;;;9.20
41940;BMP180;23057;48.554;14.454;2023-12-22T11:42:33;91920.00;;;9.20
41940;BMP180;23057;48.554;14.454;2023-12-22T11:45:11;91915.00;;;9.20
41940;BMP180;23057;48.554;14.454;2023-12-22T11:47:43;91917.00;;;9.30
41940;BMP180;23057;48.554;14.454;2023-12-22T11:50:29;91927.00;;;9.30
41940;BMP180;23057;48.554;14.454;2023-12-22T11:53:25;91912.00;;;9.30
41940;BMP180;23057;48.554;14.454;2023-12-22T11:56:03;91909.00;;;9.30
41940;BMP180;23057;48.554;14.454;2023-12-22T11:58:45;91899.00;;;9.30
41940;BMP180;23057;48.554;14.454;2023-12-22T12:01:26;91897.00;;;9.30
41940;BMP180;23057;48.554;14.454;2023-12-22T12:04:03;91892.00;;;9.40
41940;BMP180;23057;48.554;14.454;2023-12-22T12:06:35;91898.00;;;9.30
41940;BMP180;23057;48.554;14.454;2023-12-22T12:09:10;91902.00;;;9.30
41940;BMP180;23057;48.554;14.454;2023-12-22T12:14:41;91923.00;;;9.30
41940;BMP180;23057;48.554;14.454;2023-12-22T12:17:15;91921.00;;;9.30
41940;BMP180;23057;48.554;14.454;2023-12-22T12:19:51;91906.00;;;9.30
41940;BMP180;23057;48.554;14.454;2023-12-22T12:22:22;91909.00;;;9.30
41940;BMP180;23057;48.554;14.454;2023-12-22T12:24:55;91900.00;;;9.40
41940;BMP180;23057;48.554;14.454;2023-12-22T12:27:26;91926.00;;;9.30
41940;BMP180;23057;48.554;14.454;2023-12-22T12:29:57;91927.00;;;9.30
41940;BMP180;23057;48.554;14.454;2023-12-22T12:32:28;91933.00;;;9.30
41940;BMP180;23057;48.554;14.454;2023-12-22T12:34:59;91924.00;;;9.20
41940;BMP180;23057;48.554;14.454;2023-12-22T12:37:31;91929.00;;;9.20
41940;BMP180;23057;48.554;14.454;2023-12-22T12:40:02;91916.00;;;9.10
41940;BMP180;23057;48.554;14.454;2023-12-22T12:42:38;91901.00;;;9.10
41940;BMP180;23057;48.554;14.454;2023-12-22T12:45:09;91921.00;;;9.00
41940;BMP180;23057;48.554;14.454;2023-12-22T12:47:40;91913.00;;;8.90
41940;BMP180;23057;48.554;14.454;2023-12-22T12:50:11;91929.00;;;8.90
41940;BMP180;23057;48.554;14.454;2023-12-22T12:52:42;91940.00;;;8.80
41940;BMP180;23057;48.554;14.454;2023-12-22T12:55:13;91934.00;;;8.80
41940;BMP180;23057;48.554;14.454;2023-12-22T12:57:44;91933.00;;;8.90
41940;BMP180;23057;48.554;14.454;2023-12-22T13:00:17;91931.00;;;8.90
41940;BMP180;23057;48.554;14.454;2023-12-22T13:03:15;91927.00;;;8.80
41940;BMP180;23057;48.554;14.454;2023-12-22T13:05:46;91945.00;;;8.80
41940;BMP180;23057;48.554;14.454;2023-12-22T13:08:17;91939.00;;;8.70
41940;BMP180;23057;48.554;14.454;2023-12-22T13:10:48;91936.00;;;8.70
41940;BMP180;23057;48.554;14.454;2023-12-22T13:13:20;91939.00;;;8.70
41940;BMP180;23057;48.554;14.454;2023-12-22T13:15:51;91933.00;;;8.70
41940;BMP180;23057;48.554;14.454;2023-12-22T13:18:22;91939.00;;;8.70
41940;BMP180;23057;48.554;14.454;2023-12-22T13:20:53;91925.00;;;8.60
41940;BMP180;23057;48.554;14.454;2023-12-22T13:23:24;91933.00;;;8.60
41940;BMP180;23057;48.554;14.454;2023-12-22T13:25:55;91917.00;;;8.60
41940;BMP180;23057;48.554;14.454;2023-12-22T13:28:27;91926.00;;;8.60
41940;BMP180;23057;48.554;14.454;2023-12-22T13:31:01;91904.00;;;8.70
41940;BMP180;23057;48.554;14.454;2023-12-22T13:33:34;91917.00;;;8.60
41940;BMP180;23057;48.554;14.454;2023-12-22T13:36:05;91929.00;;;8.60
41940;BMP180;23057;48.554;14.454;2023-12-22T13:38:36;91921.00;;;8.60
41940;BMP180;23057;48.554;14.454;2023-12-22T13:41:08;91925.00;;;8.60
41940;BMP180;23057;48.554;14.454;2023-12-22T13:43:39;91921.00;;;8.60
41940;BMP180;23057;48.554;14.454;2023-12-22T13:46:12;91923.00;;;8.60
41940;BMP180;23057;48.554;14.454;2023-12-22T13:48:46;91913.00;;;8.60
41940;BMP180;23057;48.554;14.454;2023-12-22T13:51:17;91908.00;;;8.70
41940;BMP180;23057;48.554;14.454;2023-12-22T13:53:49;91897.00;;;8.80
41940;BMP180;23057;48.554;14.454;2023-12-22T13:56:20;91900.00;;;8.90
41940;BMP180;23057;48.554;14.454;2023-12-22T13:58:51;91890.00;;;8.90
41940;BMP180;23057;48.554;14.454;2023-12-22T14:01:22;91875.00;;;9.00
41940;BMP180;23057;48.554;14.454;2023-12-22T14:03:53;91884.00;;;9.00
41940;BMP180;23057;48.554;14.454;2023-12-22T14:06:27;91884.00;;;9.10
41940;BMP180;23057;48.554;14.454;2023-12-22T14:08:59;91886.00;;;9.10
41940;BMP180;23057;48.554;14.454;2023-12-22T14:11:30;91873.00;;;9.00
41940;BMP180;23057;48.554;14.454;2023-12-22T14:14:01;91871.00;;;9.10
41940;BMP180;23057;48.554;14.454;2023-12-22T14:16:31;91851.00;;;9.10
41940;BMP180;23057;48.554;14.454;2023-12-22T14:19:02;91842.00;;;9.10
41940;BMP180;23057;48.554;14.454;2023-12-22T14:21:33;91841.00;;;9.00
41940;BMP180;23057;48.554;14.454;2023-12-22T14:24:04;91844.00;;;9.00
41940;BMP180;23057;48.554;14.454;2023-12-22T14:26:55;91842.00;;;9.00
41940;BMP180;23057;48.554;14.454;2023-12-22T14:29:27;91837.00;;;9.00
41940;BMP180;23057;48.554;14.454;2023-12-22T14:31:58;91839.00;;;8.90
41940;BMP180;23057;48.554;14.454;2023-12-22T14:34:29;91826.00;;;8.90
41940;BMP180;23057;48.554;14.454;2023-12-22T14:37:02;91839.00;;;8.90
41940;BMP180;23057;48.554;14.454;2023-12-22T14:39:34;91829.00;;;8.90
41940;BMP180;23057;48.554;14.454;2023-12-22T14:42:06;91843.00;;;8.90